sensor_id;sensor_type;location;lat;lon;timestamp;temperature;humidity
28244;DHT22;15510;52.512;13.300;2023-04-03T00:02:17;2.90;99.90
28244;DHT22;15510;52.512;13.300;2023-04-03T00:04:43;2.90;99.90
28244;DHT22;15510;52.512;13.300;2023-04-03T00:07:08;2.90;99.90
28244;DHT22;15510;52.512;13.300;2023-04-03T00:09:34;2.90;99.90
28244;DHT22;15510;52.512;13.300;2023-04-03T00:12:00;2.90;99.90
28244;DHT22;15510;52.512;13.300;2023-04-03T00:14:25;2.90;99.90
28244;DHT22;15510;52.512;13.300;2023-04-03T00:16:53;2.90;99.90
28244;DHT22;15510;52.512;13.300;2023-04-03T00:19:19;2.90;99.90
28244;DHT22;15510;52.512;13.300;2023-04-03T00:21:45;2.90;99.90
28244;DHT22;15510;52.512;13.300;2023-04-03T00:24:11;2.90;99.90
28244;DHT22;15510;52.512;13.300;2023-04-03T00:26:37;2.80;99.90
28244;DHT22;15510;52.512;13.300;2023-04-03T00:29:02;2.70;99.90
28244;DHT22;15510;52.512;13.300;2023-04-03T00:31:28;2.80;99.90
28244;DHT22;15510;52.512;13.300;2023-04-03T00:33:54;2.80;99.90
28244;DHT22;15510;52.512;13.300;2023-04-03T00:36:20;2.80;99.90
28244;DHT22;15510;52.512;13.300;2023-04-03T00:38:45;2.70;99.90
28244;DHT22;15510;52.512;13.300;2023-04-03T00:41:11;2.70;99.90
28244;DHT22;15510;52.512;13.300;2023-04-03T00:43:37;2.70;99.90
28244;DHT22;15510;52.512;13.300;2023-04-03T00:46:03;2.70;99.90
28244;DHT22;15510;52.512;13.300;2023-04-03T00:51:04;2.70;99.90
28244;DHT22;15510;52.512;13.300;2023-04-03T00:53:37;2.60;99.90
28244;DHT22;15510;52.512;13.300;2023-04-03T00:56:07;2.60;99.90
28244;DHT22;15510;52.512;13.300;2023-04-03T00:58:38;2.60;99.90
28244;DHT22;15510;52.512;13.300;2023-04-03T01:01:08;2.60;99.90
28244;DHT22;15510;52.512;13.300;2023-04-03T01:03:35;2.50;99.90
28244;DHT22;15510;52.512;13.300;2023-04-03T01:06:03;2.50;99.90
28244;DHT22;15510;52.512;13.300;2023-04-03T01:08:30;2.50;99.90
28244;DHT22;15510;52.512;13.300;2023-04-03T01:10:56;2.50;99.90
28244;DHT22;15510;52.512;13.300;2023-04-03T01:13:30;2.50;99.90
28244;DHT22;15510;52.512;13.300;2023-04-03T01:15:56;2.50;99.90
28244;DHT22;15510;52.512;13.300;2023-04-03T01:18:24;2.50;99.90
28244;DHT22;15510;52.512;13.300;2023-04-03T01:23:44;2.50;99.90
28244;DHT22;15510;52.512;13.300;2023-04-03T01:26:12;2.50;99.90
28244;DHT22;15510;52.512;13.300;2023-04-03T01:28:38;2.40;99.90
28244;DHT22;15510;52.512;13.300;2023-04-03T01:33:49;2.40;99.90
28244;DHT22;15510;52.512;13.300;2023-04-03T01:36:24;2.30;99.90
28244;DHT22;15510;52.512;13.300;2023-04-03T01:38:52;2.30;99.90
28244;DHT22;15510;52.512;13.300;2023-04-03T01:41:19;2.30;99.90
28244;DHT22;15510;52.512;13.300;2023-04-03T01:43:47;2.30;99.90
28244;DHT22;15510;52.512;13.300;2023-04-03T01:46:14;2.20;99.90
28244;DHT22;15510;52.512;13.300;2023-04-03T01:48:40;2.30;99.90
28244;DHT22;15510;52.512;13.300;2023-04-03T01:51:06;2.30;99.90
28244;DHT22;15510;52.512;13.300;2023-04-03T01:53:32;2.30;99.90
28244;DHT22;15510;52.512;13.300;2023-04-03T01:55:58;2.30;99.90
28244;DHT22;15510;52.512;13.300;2023-04-03T01:58:23;2.20;99.90
28244;DHT22;15510;52.512;13.300;2023-04-03T02:00:51;2.20;99.90
28244;DHT22;15510;52.512;13.300;2023-04-03T02:03:18;2.30;99.90
28244;DHT22;15510;52.512;13.300;2023-04-03T02:05:44;2.20;99.90
28244;DHT22;15510;52.512;13.300;2023-04-03T02:08:10;2.20;99.90
28244;DHT22;15510;52.512;13.300;2023-04-03T02:10:37;2.20;99.90
28244;DHT22;15510;52.512;13.300;2023-04-03T02:13:03;2.20;99.90
28244;DHT22;15510;52.512;13.300;2023-04-03T02:15:29;2.20;99.90
28244;DHT22;15510;52.512;13.300;2023-04-03T02:17:55;2.20;99.90
28244;DHT22;15510;52.512;13.300;2023-04-03T02:20:21;2.20;99.90
28244;DHT22;15510;52.512;13.300;2023-04-03T02:22:47;2.10;99.90
28244;DHT22;15510;52.512;13.300;2023-04-03T02:25:13;2.10;99.90
28244;DHT22;15510;52.512;13.300;2023-04-03T02:27:40;2.10;99.90
28244;DHT22;15510;52.512;13.300;2023-04-03T02:30:06;2.10;99.90
28244;DHT22;15510;52.512;13.300;2023-04-03T02:32:32;2.10;99.90
28244;DHT22;15510;52.512;13.300;2023-04-03T02:34:58;2.10;99.90
28244;DHT22;15510;52.512;13.300;2023-04-03T02:37:24;2.10;99.90
28244;DHT22;15510;52.512;13.300;2023-04-03T02:39:52;2.10;99.90
28244;DHT22;15510;52.512;13.300;2023-04-03T02:42:17;2.00;99.90
28244;DHT22;15510;52.512;13.300;2023-04-03T02:44:43;2.00;99.90
28244;DHT22;15510;52.512;13.300;2023-04-03T02:47:12;2.10;99.90
28244;DHT22;15510;52.512;13.300;2023-04-03T02:49:38;2.00;99.90
28244;DHT22;15510;52.512;13.300;2023-04-03T02:52:04;2.00;99.90
28244;DHT22;15510;52.512;13.300;2023-04-03T02:54:30;2.00;99.90
28244;DHT22;15510;52.512;13.300;2023-04-03T02:56:59;2.00;99.90
28244;DHT22;15510;52.512;13.300;2023-04-03T02:59:25;2.00;99.90
28244;DHT22;15510;52.512;13.300;2023-04-03T03:01:51;1.90;99.90
28244;DHT22;15510;52.512;13.300;2023-04-03T03:04:16;1.90;99.90
28244;DHT22;15510;52.512;13.300;2023-04-03T03:06:42;1.90;99.90
28244;DHT22;15510;52.512;13.300;2023-04-03T03:09:08;1.90;99.90
28244;DHT22;15510;52.512;13.300;2023-04-03T03:11:34;1.90;99.90
28244;DHT22;15510;52.512;13.300;2023-04-03T03:14:01;1.90;99.90
28244;DHT22;15510;52.512;13.300;2023-04-03T03:16:27;1.90;99.90
28244;DHT22;15510;52.512;13.300;2023-04-03T03:18:53;1.80;99.90
28244;DHT22;15510;52.512;13.300;2023-04-03T03:21:19;1.80;99.90
28244;DHT22;15510;52.512;13.300;2023-04-03T03:23:45;1.80;99.90
28244;DHT22;15510;52.512;13.300;2023-04-03T03:26:11;1.80;99.90
28244;DHT22;15510;52.512;13.300;2023-04-03T03:28:37;1.80;99.90
28244;DHT22;15510;52.512;13.300;2023-04-03T03:31:05;1.80;99.90
28244;DHT22;15510;52.512;13.300;2023-04-03T03:33:32;1.80;99.90
28244;DHT22;15510;52.512;13.300;2023-04-03T03:35:59;1.60;99.90
28244;DHT22;15510;52.512;13.300;2023-04-03T03:38:25;1.60;99.90
28244;DHT22;15510;52.512;13.300;2023-04-03T03:40:52;1.60;99.90
28244;DHT22;15510;52.512;13.300;2023-04-03T03:43:20;1.60;99.90
28244;DHT22;15510;52.512;13.300;2023-04-03T03:45:52;1.60;99.90
28244;DHT22;15510;52.512;13.300;2023-04-03T03:48:18;1.60;99.90
28244;DHT22;15510;52.512;13.300;2023-04-03T03:50:45;1.60;99.90
28244;DHT22;15510;52.512;13.300;2023-04-03T03:53:11;1.50;99.90
28244;DHT22;15510;52.512;13.300;2023-04-03T03:55:37;1.60;99.90
28244;DHT22;15510;52.512;13.300;2023-04-03T03:58:03;1.60;99.90
28244;DHT22;15510;52.512;13.300;2023-04-03T04:00:30;1.50;99.90
28244;DHT22;15510;52.512;13.300;2023-04-03T04:02:57;1.40;99.90
28244;DHT22;15510;52.512;13.300;2023-04-03T04:05:24;1.40;99.90
28244;DHT22;15510;52.512;13.300;2023-04-03T04:07:51;1.40;99.90
28244;DHT22;15510;52.512;13.300;2023-04-03T04:10:17;1.50;99.90
28244;DHT22;15510;52.512;13.300;2023-04-03T04:12:44;1.60;99.90
28244;DHT22;15510;52.512;13.300;2023-04-03T04:15:10;1.60;99.90
28244;DHT22;15510;52.512;13.300;2023-04-03T04:17:37;1.60;99.90
28244;DHT22;15510;52.512;13.300;2023-04-03T04:20:06;1.50;99.90
28244;DHT22;15510;52.512;13.300;2023-04-03T04:22:32;1.50;99.90
28244;DHT22;15510;52.512;13.300;2023-04-03T04:24:58;1.50;99.90
28244;DHT22;15510;52.512;13.300;2023-04-03T04:27:25;1.40;99.90
28244;DHT22;15510;52.512;13.300;2023-04-03T04:29:51;1.40;99.90
28244;DHT22;15510;52.512;13.300;2023-04-03T04:32:18;1.50;99.90
28244;DHT22;15510;52.512;13.300;2023-04-03T04:34:44;1.50;99.90
28244;DHT22;15510;52.512;13.300;2023-04-03T04:37:10;1.50;99.90
28244;DHT22;15510;52.512;13.300;2023-04-03T04:39:36;1.50;99.90
28244;DHT22;15510;52.512;13.300;2023-04-03T04:42:02;1.40;99.90
28244;DHT22;15510;52.512;13.300;2023-04-03T04:44:30;1.40;99.90
28244;DHT22;15510;52.512;13.300;2023-04-03T04:46:58;1.40;99.90
28244;DHT22;15510;52.512;13.300;2023-04-03T04:49:25;1.40;99.90
28244;DHT22;15510;52.512;13.300;2023-04-03T04:51:51;1.40;99.90
28244;DHT22;15510;52.512;13.300;2023-04-03T04:54:19;1.40;99.90
28244;DHT22;15510;52.512;13.300;2023-04-03T04:56:47;1.40;99.90
28244;DHT22;15510;52.512;13.300;2023-04-03T04:59:13;1.40;99.90
28244;DHT22;15510;52.512;13.300;2023-04-03T05:01:39;1.40;99.90
28244;DHT22;15510;52.512;13.300;2023-04-03T05:04:09;1.40;99.90
28244;DHT22;15510;52.512;13.300;2023-04-03T05:06:35;1.40;99.90
28244;DHT22;15510;52.512;13.300;2023-04-03T05:09:04;1.40;99.90
28244;DHT22;15510;52.512;13.300;2023-04-03T05:11:31;1.40;99.90
28244;DHT22;15510;52.512;13.300;2023-04-03T05:13:57;1.40;99.90
28244;DHT22;15510;52.512;13.300;2023-04-03T05:16:25;1.50;99.90
28244;DHT22;15510;52.512;13.300;2023-04-03T05:18:51;1.50;99.90
28244;DHT22;15510;52.512;13.300;2023-04-03T05:21:20;1.50;99.90
28244;DHT22;15510;52.512;13.300;2023-04-03T05:23:51;1.50;99.90
28244;DHT22;15510;52.512;13.300;2023-04-03T05:26:17;1.60;99.90
28244;DHT22;15510;52.512;13.300;2023-04-03T05:28:45;1.60;99.90
28244;DHT22;15510;52.512;13.300;2023-04-03T05:31:12;1.60;99.90
28244;DHT22;15510;52.512;13.300;2023-04-03T05:33:38;1.60;99.90
28244;DHT22;15510;52.512;13.300;2023-04-03T05:36:08;1.60;99.90
28244;DHT22;15510;52.512;13.300;2023-04-03T05:38:38;1.60;99.90
28244;DHT22;15510;52.512;13.300;2023-04-03T05:41:04;1.70;99.90
28244;DHT22;15510;52.512;13.300;2023-04-03T05:43:30;1.70;99.90
28244;DHT22;15510;52.512;13.300;2023-04-03T05:45:56;1.70;99.90
28244;DHT22;15510;52.512;13.300;2023-04-03T05:48:24;1.70;99.90
28244;DHT22;15510;52.512;13.300;2023-04-03T05:50:51;1.70;99.90
28244;DHT22;15510;52.512;13.300;2023-04-03T05:53:27;1.80;99.90
28244;DHT22;15510;52.512;13.300;2023-04-03T05:55:54;1.80;99.90
28244;DHT22;15510;52.512;13.300;2023-04-03T05:58:20;1.90;99.90
28244;DHT22;15510;52.512;13.300;2023-04-03T06:00:50;2.00;99.90
28244;DHT22;15510;52.512;13.300;2023-04-03T06:03:16;2.20;99.90
28244;DHT22;15510;52.512;13.300;2023-04-03T06:05:42;2.30;99.90
28244;DHT22;15510;52.512;13.300;2023-04-03T06:08:10;2.40;99.90
28244;DHT22;15510;52.512;13.300;2023-04-03T06:10:36;2.50;99.90
28244;DHT22;15510;52.512;13.300;2023-04-03T06:13:02;2.40;99.90
28244;DHT22;15510;52.512;13.300;2023-04-03T06:15:28;2.50;99.90
28244;DHT22;15510;52.512;13.300;2023-04-03T06:17:54;2.50;99.90
28244;DHT22;15510;52.512;13.300;2023-04-03T06:20:20;2.50;99.90
28244;DHT22;15510;52.512;13.300;2023-04-03T06:22:48;2.60;99.90
28244;DHT22;15510;52.512;13.300;2023-04-03T06:25:14;2.70;99.90
28244;DHT22;15510;52.512;13.300;2023-04-03T06:27:39;2.70;99.90
28244;DHT22;15510;52.512;13.300;2023-04-03T06:30:06;2.80;99.90
28244;DHT22;15510;52.512;13.300;2023-04-03T06:32:32;2.80;99.90
28244;DHT22;15510;52.512;13.300;2023-04-03T06:34:58;2.80;99.90
28244;DHT22;15510;52.512;13.300;2023-04-03T06:37:24;2.90;99.90
28244;DHT22;15510;52.512;13.300;2023-04-03T06:39:54;3.00;99.90
28244;DHT22;15510;52.512;13.300;2023-04-03T06:42:20;3.20;99.90
28244;DHT22;15510;52.512;13.300;2023-04-03T06:44:54;3.20;99.90
28244;DHT22;15510;52.512;13.300;2023-04-03T06:47:19;3.30;99.90
28244;DHT22;15510;52.512;13.300;2023-04-03T06:49:45;3.30;99.90
28244;DHT22;15510;52.512;13.300;2023-04-03T06:52:11;3.40;99.90
28244;DHT22;15510;52.512;13.300;2023-04-03T06:54:40;3.50;99.90
28244;DHT22;15510;52.512;13.300;2023-04-03T06:57:06;3.50;99.90
28244;DHT22;15510;52.512;13.300;2023-04-03T06:59:32;3.60;99.90
28244;DHT22;15510;52.512;13.300;2023-04-03T07:01:59;3.80;99.90
28244;DHT22;15510;52.512;13.300;2023-04-03T07:04:25;3.80;99.90
28244;DHT22;15510;52.512;13.300;2023-04-03T07:06:51;3.90;99.90
28244;DHT22;15510;52.512;13.300;2023-04-03T07:09:17;4.00;99.90
28244;DHT22;15510;52.512;13.300;2023-04-03T07:11:44;4.00;99.90
28244;DHT22;15510;52.512;13.300;2023-04-03T07:14:10;4.00;99.90
28244;DHT22;15510;52.512;13.300;2023-04-03T07:16:35;4.00;99.90
28244;DHT22;15510;52.512;13.300;2023-04-03T07:19:02;4.10;99.90
28244;DHT22;15510;52.512;13.300;2023-04-03T07:21:28;4.20;99.90
28244;DHT22;15510;52.512;13.300;2023-04-03T07:23:54;4.30;99.90
28244;DHT22;15510;52.512;13.300;2023-04-03T07:26:21;4.30;99.90
28244;DHT22;15510;52.512;13.300;2023-04-03T07:28:48;4.40;99.90
28244;DHT22;15510;52.512;13.300;2023-04-03T07:31:16;4.50;99.90
28244;DHT22;15510;52.512;13.300;2023-04-03T07:33:44;4.70;99.90
28244;DHT22;15510;52.512;13.300;2023-04-03T07:36:14;4.90;99.90
28244;DHT22;15510;52.512;13.300;2023-04-03T07:38:40;5.00;99.90
28244;DHT22;15510;52.512;13.300;2023-04-03T07:41:06;5.00;99.90
28244;DHT22;15510;52.512;13.300;2023-04-03T07:43:32;5.00;99.90
28244;DHT22;15510;52.512;13.300;2023-04-03T07:45:58;5.00;99.90
28244;DHT22;15510;52.512;13.300;2023-04-03T07:48:25;5.10;99.90
28244;DHT22;15510;52.512;13.300;2023-04-03T07:50:51;4.90;99.90
28244;DHT22;15510;52.512;13.300;2023-04-03T07:53:17;5.00;99.90
28244;DHT22;15510;52.512;13.300;2023-04-03T07:55:46;5.20;99.90
28244;DHT22;15510;52.512;13.300;2023-04-03T07:58:15;5.30;99.90
28244;DHT22;15510;52.512;13.300;2023-04-03T08:00:41;5.40;99.90
28244;DHT22;15510;52.512;13.300;2023-04-03T08:03:09;5.70;99.90
28244;DHT22;15510;52.512;13.300;2023-04-03T08:05:43;5.90;99.90
28244;DHT22;15510;52.512;13.300;2023-04-03T08:08:11;6.10;99.90
28244;DHT22;15510;52.512;13.300;2023-04-03T08:10:37;5.80;99.90
28244;DHT22;15510;52.512;13.300;2023-04-03T08:13:03;5.60;99.90
28244;DHT22;15510;52.512;13.300;2023-04-03T08:15:30;5.60;99.90
28244;DHT22;15510;52.512;13.300;2023-04-03T08:17:57;5.70;99.90
28244;DHT22;15510;52.512;13.300;2023-04-03T08:20:23;6.00;99.90
28244;DHT22;15510;52.512;13.300;2023-04-03T08:22:49;6.20;99.90
28244;DHT22;15510;52.512;13.300;2023-04-03T08:25:15;6.60;99.90
28244;DHT22;15510;52.512;13.300;2023-04-03T08:27:40;6.90;99.90
28244;DHT22;15510;52.512;13.300;2023-04-03T08:30:07;6.90;99.90
28244;DHT22;15510;52.512;13.300;2023-04-03T08:32:34;6.90;99.90
28244;DHT22;15510;52.512;13.300;2023-04-03T08:35:02;6.90;99.90
28244;DHT22;15510;52.512;13.300;2023-04-03T08:37:27;6.60;99.90
28244;DHT22;15510;52.512;13.300;2023-04-03T08:39:53;6.40;99.90
28244;DHT22;15510;52.512;13.300;2023-04-03T08:48:12;6.10;99.90
28244;DHT22;15510;52.512;13.300;2023-04-03T08:50:42;6.20;99.90
28244;DHT22;15510;52.512;13.300;2023-04-03T08:53:26;6.20;99.90
28244;DHT22;15510;52.512;13.300;2023-04-03T08:55:55;6.30;99.90
28244;DHT22;15510;52.512;13.300;2023-04-03T09:01:33;6.10;99.90
28244;DHT22;15510;52.512;13.300;2023-04-03T09:04:01;6.20;99.90
28244;DHT22;15510;52.512;13.300;2023-04-03T09:06:31;6.30;99.90
28244;DHT22;15510;52.512;13.300;2023-04-03T09:20:17;6.40;99.90
28244;DHT22;15510;52.512;13.300;2023-04-03T09:22:45;6.40;99.90
28244;DHT22;15510;52.512;13.300;2023-04-03T09:25:18;6.50;99.90
28244;DHT22;15510;52.512;13.300;2023-04-03T09:27:46;6.70;99.90
28244;DHT22;15510;52.512;13.300;2023-04-03T09:30:24;7.10;99.90
28244;DHT22;15510;52.512;13.300;2023-04-03T09:32:55;7.20;99.90
28244;DHT22;15510;52.512;13.300;2023-04-03T09:40:45;7.30;99.90
28244;DHT22;15510;52.512;13.300;2023-04-03T09:45:48;7.40;99.90
28244;DHT22;15510;52.512;13.300;2023-04-03T09:50:55;7.40;98.50
28244;DHT22;15510;52.512;13.300;2023-04-03T09:55:56;8.20;97.50
28244;DHT22;15510;52.512;13.300;2023-04-03T09:58:35;8.50;97.50
28244;DHT22;15510;52.512;13.300;2023-04-03T10:01:03;8.90;95.20
28244;DHT22;15510;52.512;13.300;2023-04-03T10:03:32;8.80;93.20
28244;DHT22;15510;52.512;13.300;2023-04-03T10:06:01;8.30;94.60
28244;DHT22;15510;52.512;13.300;2023-04-03T10:11:15;7.60;95.70
28244;DHT22;15510;52.512;13.300;2023-04-03T10:14:01;7.50;97.20
28244;DHT22;15510;52.512;13.300;2023-04-03T10:16:39;7.60;96.30
28244;DHT22;15510;52.512;13.300;2023-04-03T10:19:31;7.70;96.10
28244;DHT22;15510;52.512;13.300;2023-04-03T10:29:59;7.40;97.30
28244;DHT22;15510;52.512;13.300;2023-04-03T10:35:36;7.40;95.60
28244;DHT22;15510;52.512;13.300;2023-04-03T10:44:02;7.60;95.10
28244;DHT22;15510;52.512;13.300;2023-04-03T10:46:41;7.90;94.10
28244;DHT22;15510;52.512;13.300;2023-04-03T10:49:31;8.10;93.00
28244;DHT22;15510;52.512;13.300;2023-04-03T10:52:24;8.50;93.40
28244;DHT22;15510;52.512;13.300;2023-04-03T10:55:14;8.70;90.50
28244;DHT22;15510;52.512;13.300;2023-04-03T10:57:44;8.50;90.80
28244;DHT22;15510;52.512;13.300;2023-04-03T11:00:33;8.80;92.10
28244;DHT22;15510;52.512;13.300;2023-04-03T11:03:05;9.00;90.70
28244;DHT22;15510;52.512;13.300;2023-04-03T11:05:41;8.70;89.00
28244;DHT22;15510;52.512;13.300;2023-04-03T11:10:57;8.40;89.60
28244;DHT22;15510;52.512;13.300;2023-04-03T11:14:20;8.50;90.90
28244;DHT22;15510;52.512;13.300;2023-04-03T11:16:42;8.70;91.20
28244;DHT22;15510;52.512;13.300;2023-04-03T11:19:33;8.50;91.60
28244;DHT22;15510;52.512;13.300;2023-04-03T11:25:06;8.50;91.80
28244;DHT22;15510;52.512;13.300;2023-04-03T11:30:27;8.40;92.00
28244;DHT22;15510;52.512;13.300;2023-04-03T11:33:05;8.10;93.70
28244;DHT22;15510;52.512;13.300;2023-04-03T11:35:33;7.80;93.30
28244;DHT22;15510;52.512;13.300;2023-04-03T11:38:02;7.70;94.50
28244;DHT22;15510;52.512;13.300;2023-04-03T11:40:33;7.90;94.50
28244;DHT22;15510;52.512;13.300;2023-04-03T11:50:54;7.50;95.60
28244;DHT22;15510;52.512;13.300;2023-04-03T11:55:55;7.50;96.00
28244;DHT22;15510;52.512;13.300;2023-04-03T11:58:25;7.60;97.30
28244;DHT22;15510;52.512;13.300;2023-04-03T12:01:07;7.90;96.30
28244;DHT22;15510;52.512;13.300;2023-04-03T12:03:57;8.10;96.20
28244;DHT22;15510;52.512;13.300;2023-04-03T12:06:49;8.00;94.80
28244;DHT22;15510;52.512;13.300;2023-04-03T12:15:23;7.90;97.10
28244;DHT22;15510;52.512;13.300;2023-04-03T12:17:49;8.00;96.10
28244;DHT22;15510;52.512;13.300;2023-04-03T12:20:54;8.10;95.30
28244;DHT22;15510;52.512;13.300;2023-04-03T12:23:33;8.00;96.10
28244;DHT22;15510;52.512;13.300;2023-04-03T12:26:20;8.00;96.30
28244;DHT22;15510;52.512;13.300;2023-04-03T12:28:51;8.00;96.10
28244;DHT22;15510;52.512;13.300;2023-04-03T12:31:19;8.30;96.50
28244;DHT22;15510;52.512;13.300;2023-04-03T12:46:20;8.80;94.30
28244;DHT22;15510;52.512;13.300;2023-04-03T12:54:00;8.60;93.70
28244;DHT22;15510;52.512;13.300;2023-04-03T12:56:30;9.00;92.80
28244;DHT22;15510;52.512;13.300;2023-04-03T12:59:18;9.10;90.50
28244;DHT22;15510;52.512;13.300;2023-04-03T13:01:44;9.40;88.50
28244;DHT22;15510;52.512;13.300;2023-04-03T13:04:18;9.30;86.30
28244;DHT22;15510;52.512;13.300;2023-04-03T13:06:45;9.20;89.40
28244;DHT22;15510;52.512;13.300;2023-04-03T13:09:29;9.20;87.80
28244;DHT22;15510;52.512;13.300;2023-04-03T13:12:03;9.10;90.40
28244;DHT22;15510;52.512;13.300;2023-04-03T13:14:29;9.00;92.10
28244;DHT22;15510;52.512;13.300;2023-04-03T13:16:58;8.80;91.70
28244;DHT22;15510;52.512;13.300;2023-04-03T13:19:26;8.50;93.70
28244;DHT22;15510;52.512;13.300;2023-04-03T13:22:05;8.20;93.70
28244;DHT22;15510;52.512;13.300;2023-04-03T13:24:35;8.00;94.90
28244;DHT22;15510;52.512;13.300;2023-04-03T13:27:01;7.90;95.70
28244;DHT22;15510;52.512;13.300;2023-04-03T13:29:32;7.90;97.00
28244;DHT22;15510;52.512;13.300;2023-04-03T13:31:59;7.70;96.80
28244;DHT22;15510;52.512;13.300;2023-04-03T13:34:29;7.50;97.40
28244;DHT22;15510;52.512;13.300;2023-04-03T13:36:59;7.40;98.20
28244;DHT22;15510;52.512;13.300;2023-04-03T13:39:28;7.30;98.60
28244;DHT22;15510;52.512;13.300;2023-04-03T13:41:58;7.40;98.20
28244;DHT22;15510;52.512;13.300;2023-04-03T13:44:29;7.40;98.00
28244;DHT22;15510;52.512;13.300;2023-04-03T13:47:18;7.50;98.20
28244;DHT22;15510;52.512;13.300;2023-04-03T13:50:25;7.40;98.70
28244;DHT22;15510;52.512;13.300;2023-04-03T13:53:12;7.40;98.40
28244;DHT22;15510;52.512;13.300;2023-04-03T13:56:07;7.60;97.70
28244;DHT22;15510;52.512;13.300;2023-04-03T13:58:34;7.80;97.40
28244;DHT22;15510;52.512;13.300;2023-04-03T14:01:21;7.90;97.20
28244;DHT22;15510;52.512;13.300;2023-04-03T14:06:18;7.70;98.10
28244;DHT22;15510;52.512;13.300;2023-04-03T14:08:44;7.50;98.40
28244;DHT22;15510;52.512;13.300;2023-04-03T14:11:37;7.40;99.90
28244;DHT22;15510;52.512;13.300;2023-04-03T14:14:10;7.40;99.90
28244;DHT22;15510;52.512;13.300;2023-04-03T14:16:40;7.50;99.00
28244;DHT22;15510;52.512;13.300;2023-04-03T14:19:06;7.50;99.60
28244;DHT22;15510;52.512;13.300;2023-04-03T14:21:33;7.40;99.40
28244;DHT22;15510;52.512;13.300;2023-04-03T14:23:59;7.40;99.60
28244;DHT22;15510;52.512;13.300;2023-04-03T14:26:25;7.40;99.30
28244;DHT22;15510;52.512;13.300;2023-04-03T14:28:54;7.50;99.20
28244;DHT22;15510;52.512;13.300;2023-04-03T14:31:21;7.40;99.20
28244;DHT22;15510;52.512;13.300;2023-04-03T14:33:47;7.60;99.30
28244;DHT22;15510;52.512;13.300;2023-04-03T14:36:14;7.60;98.90
28244;DHT22;15510;52.512;13.300;2023-04-03T14:38:42;7.80;99.40
28244;DHT22;15510;52.512;13.300;2023-04-03T14:41:14;8.00;99.20
28244;DHT22;15510;52.512;13.300;2023-04-03T14:43:41;8.10;98.30
28244;DHT22;15510;52.512;13.300;2023-04-03T14:46:15;8.00;98.50
28244;DHT22;15510;52.512;13.300;2023-04-03T14:48:42;8.10;98.00
28244;DHT22;15510;52.512;13.300;2023-04-03T14:51:10;8.40;97.70
28244;DHT22;15510;52.512;13.300;2023-04-03T14:53:36;8.60;96.90
28244;DHT22;15510;52.512;13.300;2023-04-03T14:56:09;8.80;96.90
28244;DHT22;15510;52.512;13.300;2023-04-03T14:58:36;8.80;98.10
28244;DHT22;15510;52.512;13.300;2023-04-03T15:01:02;8.60;97.20
28244;DHT22;15510;52.512;13.300;2023-04-03T15:03:28;8.50;98.30
28244;DHT22;15510;52.512;13.300;2023-04-03T15:05:54;8.20;99.00
28244;DHT22;15510;52.512;13.300;2023-04-03T15:08:23;8.00;99.90
28244;DHT22;15510;52.512;13.300;2023-04-03T15:10:51;7.80;99.90
28244;DHT22;15510;52.512;13.300;2023-04-03T15:13:22;7.60;99.90
28244;DHT22;15510;52.512;13.300;2023-04-03T15:15:49;7.50;99.90
28244;DHT22;15510;52.512;13.300;2023-04-03T15:18:21;7.40;99.90
28244;DHT22;15510;52.512;13.300;2023-04-03T15:20:47;7.20;99.90
28244;DHT22;15510;52.512;13.300;2023-04-03T15:23:15;7.10;99.90
28244;DHT22;15510;52.512;13.300;2023-04-03T15:25:43;7.00;99.90
28244;DHT22;15510;52.512;13.300;2023-04-03T15:30:54;6.70;99.90
28244;DHT22;15510;52.512;13.300;2023-04-03T15:33:20;6.60;99.90
28244;DHT22;15510;52.512;13.300;2023-04-03T15:35:46;6.50;99.90
28244;DHT22;15510;52.512;13.300;2023-04-03T15:38:11;6.60;99.90
28244;DHT22;15510;52.512;13.300;2023-04-03T15:40:38;6.60;99.90
28244;DHT22;15510;52.512;13.300;2023-04-03T15:43:05;6.60;99.90
28244;DHT22;15510;52.512;13.300;2023-04-03T15:45:32;6.50;99.90
28244;DHT22;15510;52.512;13.300;2023-04-03T15:47:59;6.40;99.90
28244;DHT22;15510;52.512;13.300;2023-04-03T15:50:25;6.30;99.90
28244;DHT22;15510;52.512;13.300;2023-04-03T15:52:52;6.40;99.90
28244;DHT22;15510;52.512;13.300;2023-04-03T15:55:26;6.50;99.90
28244;DHT22;15510;52.512;13.300;2023-04-03T15:57:52;6.50;99.90
28244;DHT22;15510;52.512;13.300;2023-04-03T16:00:19;6.50;99.90
28244;DHT22;15510;52.512;13.300;2023-04-03T16:02:47;6.60;99.90
28244;DHT22;15510;52.512;13.300;2023-04-03T16:05:15;6.50;99.90
28244;DHT22;15510;52.512;13.300;2023-04-03T16:07:43;6.50;99.90
28244;DHT22;15510;52.512;13.300;2023-04-03T16:10:11;6.50;99.90
28244;DHT22;15510;52.512;13.300;2023-04-03T16:12:37;6.50;99.90
28244;DHT22;15510;52.512;13.300;2023-04-03T16:15:04;6.60;99.90
28244;DHT22;15510;52.512;13.300;2023-04-03T16:17:31;6.60;99.90
28244;DHT22;15510;52.512;13.300;2023-04-03T16:19:57;6.40;99.90
28244;DHT22;15510;52.512;13.300;2023-04-03T16:22:24;6.30;99.90
28244;DHT22;15510;52.512;13.300;2023-04-03T16:24:51;6.20;99.90
28244;DHT22;15510;52.512;13.300;2023-04-03T16:27:17;6.10;99.90
28244;DHT22;15510;52.512;13.300;2023-04-03T16:29:43;6.00;99.90
28244;DHT22;15510;52.512;13.300;2023-04-03T16:32:09;6.10;99.90
28244;DHT22;15510;52.512;13.300;2023-04-03T16:34:35;6.20;99.90
28244;DHT22;15510;52.512;13.300;2023-04-03T16:37:01;6.20;99.90
28244;DHT22;15510;52.512;13.300;2023-04-03T16:39:26;6.30;99.90
28244;DHT22;15510;52.512;13.300;2023-04-03T16:41:52;6.40;99.90
28244;DHT22;15510;52.512;13.300;2023-04-03T16:44:18;6.40;99.90
28244;DHT22;15510;52.512;13.300;2023-04-03T16:46:44;6.40;99.90
28244;DHT22;15510;52.512;13.300;2023-04-03T16:49:10;6.50;99.90
28244;DHT22;15510;52.512;13.300;2023-04-03T16:51:36;6.50;99.90
28244;DHT22;15510;52.512;13.300;2023-04-03T16:54:01;6.40;99.90
28244;DHT22;15510;52.512;13.300;2023-04-03T16:56:27;6.30;99.90
28244;DHT22;15510;52.512;13.300;2023-04-03T16:58:53;6.30;99.90
28244;DHT22;15510;52.512;13.300;2023-04-03T17:01:21;6.20;99.90
28244;DHT22;15510;52.512;13.300;2023-04-03T17:03:47;6.00;99.90
28244;DHT22;15510;52.512;13.300;2023-04-03T17:06:18;5.90;99.90
28244;DHT22;15510;52.512;13.300;2023-04-03T17:08:49;5.80;99.90
28244;DHT22;15510;52.512;13.300;2023-04-03T17:11:27;5.80;99.90
28244;DHT22;15510;52.512;13.300;2023-04-03T17:13:53;5.80;99.90
28244;DHT22;15510;52.512;13.300;2023-04-03T17:16:19;5.80;99.90
28244;DHT22;15510;52.512;13.300;2023-04-03T17:18:46;5.90;99.90
28244;DHT22;15510;52.512;13.300;2023-04-03T17:21:13;5.90;99.90
28244;DHT22;15510;52.512;13.300;2023-04-03T17:23:39;5.90;99.90
28244;DHT22;15510;52.512;13.300;2023-04-03T17:26:06;5.80;99.90
28244;DHT22;15510;52.512;13.300;2023-04-03T17:28:32;5.70;99.90
28244;DHT22;15510;52.512;13.300;2023-04-03T17:30:59;5.60;99.90